createdAt,value
2023-03-22T00:01:37.892Z,3.03
2023-03-22T00:04:04.963Z,2.87
2023-03-22T00:06:31.841Z,3.97
2023-03-22T00:08:58.933Z,4.40
2023-03-22T00:11:26.045Z,5.35
2023-03-22T00:13:53.823Z,6.03
2023-03-22T00:16:21.968Z,5.62
2023-03-22T00:18:49.002Z,3.55
2023-03-22T00:21:16.842Z,6.97
2023-03-22T00:23:44.744Z,7.32
2023-03-22T00:26:12.603Z,6.10
2023-03-22T00:28:39.778Z,4.65
2023-03-22T00:31:07.355Z,3.10
2023-03-22T00:33:34.621Z,2.95
2023-03-22T00:36:07.182Z,3.00
2023-03-22T00:38:42.932Z,2.58
2023-03-22T00:41:13.963Z,3.13
2023-03-22T00:43:40.962Z,2.90
2023-03-22T00:46:08.625Z,2.67
2023-03-22T00:48:35.643Z,2.75
2023-03-22T00:51:02.947Z,2.92
2023-03-22T00:53:29.893Z,2.87
2023-03-22T00:55:57.388Z,2.78
2023-03-22T00:58:24.609Z,2.80
2023-03-22T01:00:51.954Z,2.83
2023-03-22T01:03:18.912Z,2.78
2023-03-22T01:05:46.487Z,2.95
2023-03-22T01:08:15.014Z,2.70
2023-03-22T01:10:42.696Z,3.05
2023-03-22T01:13:11.448Z,2.67
2023-03-22T01:15:38.478Z,2.47
2023-03-22T01:18:05.720Z,3.17
2023-03-22T01:20:32.669Z,2.83
2023-03-22T01:22:59.802Z,3.08
2023-03-22T01:25:26.686Z,3.33
2023-03-22T01:27:54.233Z,3.17
2023-03-22T01:30:21.148Z,3.08
2023-03-22T01:32:48.062Z,3.00
2023-03-22T01:35:14.961Z,3.40
2023-03-22T01:37:41.881Z,3.10
2023-03-22T01:40:10.383Z,2.97
2023-03-22T01:42:37.261Z,3.05
2023-03-22T01:45:19.049Z,3.35
2023-03-22T01:47:55.796Z,3.10
2023-03-22T01:50:23.612Z,3.00
2023-03-22T01:52:51.222Z,3.10
2023-03-22T01:55:22.878Z,3.50
2023-03-22T01:57:50.238Z,3.55
2023-03-22T02:00:19.125Z,4.55
2023-03-22T02:02:48.850Z,3.83
2023-03-22T02:05:15.948Z,4.25
2023-03-22T02:07:43.827Z,4.12
2023-03-22T02:10:13.426Z,4.65
2023-03-22T02:13:08.408Z,4.70
2023-03-22T02:15:43.045Z,5.03
2023-03-22T02:18:28.565Z,4.30
2023-03-22T02:21:13.307Z,6.37
2023-03-22T02:24:01.493Z,5.65
2023-03-22T02:26:53.540Z,3.58
2023-03-22T02:29:30.208Z,3.25
2023-03-22T02:32:04.718Z,2.90
2023-03-22T02:34:31.492Z,3.12
2023-03-22T02:39:47.591Z,2.28
2023-03-22T02:42:17.585Z,3.78
2023-03-22T02:45:11.610Z,4.70
2023-03-22T02:47:38.753Z,5.18
2023-03-22T02:50:11.461Z,5.75
2023-03-22T02:52:47.642Z,4.68
2023-03-22T02:55:21.882Z,4.62
2023-03-22T02:58:10.567Z,3.90
2023-03-22T03:00:39.084Z,4.87
2023-03-22T03:03:11.497Z,4.28
2023-03-22T03:06:02.836Z,4.15
2023-03-22T03:08:31.093Z,4.75
2023-03-22T03:10:57.949Z,3.95
2023-03-22T03:13:24.812Z,4.28
2023-03-22T03:15:55.360Z,5.62
2023-03-22T03:18:41.227Z,7.22
2023-03-22T03:21:23.315Z,6.15
2023-03-22T03:24:28.146Z,4.20
2023-03-22T03:27:01.066Z,4.35
2023-03-22T03:29:43.066Z,4.05
2023-03-22T03:32:19.967Z,3.28
2023-03-22T03:34:51.555Z,3.25
2023-03-22T03:37:39.330Z,3.45
2023-03-22T03:40:13.002Z,3.17
2023-03-22T03:42:44.510Z,3.20
2023-03-22T03:45:11.764Z,3.10
2023-03-22T03:47:38.717Z,3.22
2023-03-22T03:50:06.445Z,3.15
2023-03-22T03:52:33.312Z,2.80
2023-03-22T03:55:00.186Z,2.70
2023-03-22T03:57:27.326Z,3.03
2023-03-22T03:59:54.381Z,2.78
2023-03-22T04:02:21.256Z,2.53
2023-03-22T04:04:48.264Z,2.47
2023-03-22T04:07:15.424Z,2.60
2023-03-22T04:09:42.393Z,2.65
2023-03-22T04:12:11.892Z,2.53
2023-03-22T04:14:38.830Z,2.42
2023-03-22T04:17:05.820Z,2.40
2023-03-22T04:19:32.738Z,2.70
2023-03-22T04:22:00.421Z,3.25
2023-03-22T04:24:27.341Z,3.80
2023-03-22T04:26:54.350Z,3.50
2023-03-22T04:29:22.219Z,3.90
2023-03-22T04:31:49.079Z,4.35
2023-03-22T04:34:15.920Z,5.40
2023-03-22T04:36:42.830Z,4.65
2023-03-22T04:39:11.135Z,4.78
2023-03-22T04:41:38.244Z,5.12
2023-03-22T04:44:06.372Z,5.18
2023-03-22T04:46:35.603Z,4.90
2023-03-22T04:49:03.518Z,4.80
2023-03-22T04:51:32.219Z,4.30
2023-03-22T04:53:59.173Z,4.30
2023-03-22T04:56:27.054Z,4.53
2023-03-22T04:58:54.130Z,4.57
2023-03-22T05:01:21.143Z,4.10
2023-03-22T05:03:48.090Z,4.40
2023-03-22T05:06:15.709Z,4.55
2023-03-22T05:08:42.896Z,4.30
2023-03-22T05:11:16.794Z,3.83
2023-03-22T05:13:43.747Z,4.35
2023-03-22T05:16:11.096Z,4.65
2023-03-22T05:18:42.566Z,4.22
2023-03-22T05:21:18.077Z,4.15
2023-03-22T05:23:45.966Z,4.53
2023-03-22T05:26:16.265Z,4.12
2023-03-22T05:28:44.293Z,4.32
2023-03-22T05:31:14.737Z,4.37
2023-03-22T05:33:42.010Z,4.90
2023-03-22T05:36:09.693Z,4.43
2023-03-22T05:38:36.598Z,4.15
2023-03-22T05:41:03.742Z,4.43
2023-03-22T05:43:30.765Z,4.30
2023-03-22T05:45:57.604Z,3.95
2023-03-22T05:48:24.506Z,3.72
2023-03-22T05:50:51.434Z,3.90
2023-03-22T05:53:18.320Z,4.00
2023-03-22T05:55:45.179Z,3.90
2023-03-22T05:58:13.126Z,3.80
2023-03-22T06:00:40.498Z,3.70
2023-03-22T06:03:08.150Z,3.20
2023-03-22T06:05:36.802Z,3.60
2023-03-22T06:08:04.347Z,3.70
2023-03-22T06:10:31.294Z,3.30
2023-03-22T06:12:58.197Z,3.50
2023-03-22T06:15:25.099Z,3.20
2023-03-22T06:17:52.013Z,3.80
2023-03-22T06:20:19.624Z,3.53
2023-03-22T06:22:46.549Z,3.70
2023-03-22T06:25:14.917Z,4.15
2023-03-22T06:27:41.843Z,3.65
2023-03-22T06:30:09.189Z,3.80
2023-03-22T06:32:36.218Z,4.00
2023-03-22T06:35:03.066Z,4.30
2023-03-22T06:37:29.932Z,4.85
2023-03-22T06:39:56.790Z,5.28
2023-03-22T06:42:23.626Z,5.18
2023-03-22T06:44:50.535Z,4.97
2023-03-22T06:47:17.420Z,6.40
2023-03-22T06:49:44.256Z,5.50
2023-03-22T06:52:11.140Z,5.50
2023-03-22T06:54:37.997Z,6.03
2023-03-22T06:57:04.864Z,6.32
2023-03-22T06:59:31.728Z,7.40
2023-03-22T07:01:58.649Z,7.65
2023-03-22T07:04:25.891Z,8.02
2023-03-22T07:06:52.798Z,7.50
2023-03-22T07:09:19.894Z,8.45
2023-03-22T07:11:47.138Z,8.32
2023-03-22T07:14:14.294Z,8.60
2023-03-22T07:16:41.204Z,9.70
2023-03-22T07:19:08.162Z,9.75
2023-03-22T07:21:35.010Z,9.80
2023-03-22T07:24:01.959Z,9.77
2023-03-22T07:26:30.741Z,10.18
2023-03-22T07:28:57.625Z,9.38
2023-03-22T07:31:24.537Z,11.02
2023-03-22T07:33:52.360Z,11.20
2023-03-22T07:36:23.970Z,10.73
2023-03-22T07:38:51.824Z,10.65
2023-03-22T07:41:19.129Z,10.05
2023-03-22T07:43:55.191Z,11.00
2023-03-22T07:46:25.328Z,11.70
2023-03-22T07:48:52.219Z,10.68
2023-03-22T07:51:19.433Z,11.00
2023-03-22T07:53:46.359Z,11.00
2023-03-22T07:56:13.223Z,10.48
2023-03-22T07:58:42.559Z,10.80
2023-03-22T08:01:09.543Z,10.02
2023-03-22T08:03:37.739Z,10.73
2023-03-22T08:06:08.253Z,12.20
2023-03-22T08:08:37.066Z,11.68
2023-03-22T08:11:07.712Z,12.35
2023-03-22T08:13:37.076Z,12.27
2023-03-22T08:16:04.277Z,12.30
2023-03-22T08:18:31.546Z,11.30
2023-03-22T08:20:59.882Z,12.13
2023-03-22T08:23:40.146Z,11.43
2023-03-22T08:26:08.521Z,12.13
2023-03-22T08:28:35.662Z,11.75
2023-03-22T08:31:09.710Z,11.75
2023-03-22T08:33:36.567Z,12.15
2023-03-22T08:36:08.813Z,11.75
2023-03-22T08:38:35.794Z,10.88
2023-03-22T08:41:03.509Z,10.43
2023-03-22T08:43:30.436Z,10.40
2023-03-22T08:45:57.944Z,10.52
2023-03-22T08:48:25.206Z,10.75
2023-03-22T08:50:52.129Z,10.80
2023-03-22T08:53:19.020Z,10.73
2023-03-22T08:55:45.859Z,11.25
2023-03-22T08:58:13.628Z,10.85
2023-03-22T09:00:48.490Z,10.38
2023-03-22T09:03:16.344Z,10.88
2023-03-22T09:05:43.322Z,10.77
2023-03-22T09:08:18.256Z,11.70
2023-03-22T09:10:51.978Z,11.25
2023-03-22T09:13:19.386Z,10.02
2023-03-22T09:15:46.451Z,10.27
2023-03-22T09:18:14.116Z,10.25
2023-03-22T09:20:41.178Z,11.20
2023-03-22T09:23:08.255Z,12.13
2023-03-22T09:25:35.527Z,11.20
2023-03-22T09:28:02.704Z,11.63
2023-03-22T09:30:29.746Z,12.27
2023-03-22T09:32:57.725Z,12.18
2023-03-22T09:35:24.813Z,12.70
2023-03-22T09:37:53.742Z,11.85
2023-03-22T09:40:26.085Z,11.18
2023-03-22T09:42:55.642Z,11.30
2023-03-22T09:45:38.677Z,10.00
2023-03-22T09:48:39.783Z,8.25
2023-03-22T09:51:11.474Z,7.12
2023-03-22T09:53:41.206Z,6.47
2023-03-22T09:56:15.831Z,6.62
2023-03-22T09:59:19.974Z,5.68
2023-03-22T10:01:59.966Z,4.78
2023-03-22T10:05:30.059Z,4.03
2023-03-22T10:08:05.603Z,3.62
2023-03-22T10:10:38.153Z,3.83
2023-03-22T10:16:07.578Z,3.65
2023-03-22T10:18:37.654Z,3.78
2023-03-22T10:21:07.565Z,3.58
2023-03-22T10:23:42.245Z,3.65
2023-03-22T10:26:17.559Z,3.20
2023-03-22T10:28:45.739Z,3.75
2023-03-22T10:31:21.387Z,3.47
2023-03-22T10:33:59.109Z,3.17
2023-03-22T10:36:33.507Z,3.45
2023-03-22T10:39:07.248Z,3.00
2023-03-22T10:41:36.726Z,3.03
2023-03-22T10:44:05.315Z,3.05
2023-03-22T10:46:37.511Z,3.40
2023-03-22T10:49:05.444Z,3.15
2023-03-22T10:51:46.770Z,2.90
2023-03-22T10:54:15.637Z,2.70
2023-03-22T10:56:44.319Z,2.35
2023-03-22T10:59:49.898Z,3.67
2023-03-22T11:02:28.847Z,2.65
2023-03-22T11:04:58.813Z,3.00
2023-03-22T11:07:40.707Z,3.53
2023-03-22T11:10:10.535Z,3.37
2023-03-22T11:12:40.214Z,2.75
2023-03-22T11:15:11.520Z,2.28
2023-03-22T11:17:39.205Z,2.40
2023-03-22T11:20:07.833Z,2.25
2023-03-22T11:22:40.373Z,2.72
2023-03-22T11:25:14.524Z,2.72
2023-03-22T11:27:57.330Z,3.20
2023-03-22T11:30:27.311Z,2.90
2023-03-22T11:33:19.455Z,2.92
2023-03-22T11:35:53.531Z,2.60
2023-03-22T11:38:41.172Z,2.50
2023-03-22T11:43:48.501Z,2.60
2023-03-22T11:46:19.466Z,2.55
2023-03-22T11:48:48.221Z,2.00
2023-03-22T11:51:38.998Z,2.30
2023-03-22T11:54:10.596Z,2.67
2023-03-22T11:56:42.286Z,2.00
2023-03-22T11:59:14.573Z,1.92
2023-03-22T12:01:55.439Z,1.65
2023-03-22T12:04:27.203Z,2.10
2023-03-22T12:06:59.774Z,1.70
2023-03-22T12:09:41.400Z,1.27
2023-03-22T12:12:14.245Z,2.17
2023-03-22T12:14:51.017Z,2.10
2023-03-22T12:17:41.168Z,1.60
2023-03-22T12:20:34.387Z,2.10
2023-03-22T12:23:02.254Z,2.05
2023-03-22T12:25:34.880Z,2.03
2023-03-22T12:28:09.088Z,1.60
2023-03-22T12:30:56.510Z,1.70
2023-03-22T12:33:33.478Z,1.83
2023-03-22T12:36:03.536Z,1.58
2023-03-22T12:38:38.482Z,1.60
2023-03-22T12:41:09.758Z,1.58
2023-03-22T12:43:46.517Z,1.85
2023-03-22T12:46:26.075Z,1.70
2023-03-22T12:48:58.169Z,2.65
2023-03-22T12:51:25.249Z,1.62
2023-03-22T12:53:55.436Z,2.10
2023-03-22T12:56:25.162Z,2.05
2023-03-22T12:59:04.629Z,2.08
2023-03-22T13:01:45.812Z,2.20
2023-03-22T13:04:44.844Z,2.42
2023-03-22T13:07:32.160Z,2.08
2023-03-22T13:10:00.432Z,2.60
2023-03-22T13:12:30.567Z,2.20
2023-03-22T13:15:41.184Z,2.37
2023-03-22T13:18:38.347Z,2.33
2023-03-22T13:21:29.546Z,2.87
2023-03-22T13:24:02.278Z,2.40
2023-03-22T13:26:45.726Z,2.70
2023-03-22T13:29:20.985Z,2.50
2023-03-22T13:31:58.523Z,2.33
2023-03-22T13:34:36.301Z,2.50
2023-03-22T13:37:05.441Z,2.72
2023-03-22T13:39:34.877Z,2.50
2023-03-22T13:42:17.049Z,2.60
2023-03-22T13:44:46.230Z,2.85
2023-03-22T13:47:31.821Z,2.70
2023-03-22T13:50:02.277Z,2.40
2023-03-22T13:52:38.672Z,2.05
2023-03-22T13:55:18.511Z,2.30
2023-03-22T13:57:59.258Z,2.60
2023-03-22T14:00:34.290Z,2.10
2023-03-22T14:03:06.484Z,2.40
2023-03-22T14:05:36.689Z,2.55
2023-03-22T14:08:04.487Z,2.12
2023-03-22T14:10:44.838Z,2.47
2023-03-22T14:13:32.349Z,2.17
2023-03-22T14:16:36.229Z,2.65
2023-03-22T14:19:05.743Z,2.72
2023-03-22T14:21:39.166Z,2.60
